Time;durP1;ratioP1;P1;durP2;ratioP2;P2;SDS_P1;SDS_P2;PMS_P1;PMS_P2;Temp;Humidity;BMP_temperature;BMP_pressure;BME280_temperature;BME280_humidity;BME280_pressure;Samples;Min_cycle;Max_cycle;Signal;HPM_P1;HPM_P2
2023/06/23 00:01:01;;;;;;;0.10;0.10;;;;;;;14.19;59.31;99263.59;5069978;28;20059;-71
2023/06/23 00:03:27;;;;;;;0.10;0.10;;;;;;;14.20;59.81;99259.72;5062363;28;20051;-71
2023/06/23 00:05:54;;;;;;;0.10;0.10;;;;;;;14.13;59.17;99251.94;5081157;28;20059;-71
2023/06/23 00:08:21;;;;;;;0.10;0.10;;;;;;;14.07;59.81;99255.91;5062467;28;20043;-71
2023/06/23 00:10:48;;;;;;;0.10;0.10;;;;;;;14.06;59.92;99248.78;5093946;28;20040;-71
2023/06/23 00:13:14;;;;;;;0.10;0.10;;;;;;;14.13;59.85;99245.59;5083824;28;20054;-71
2023/06/23 00:15:40;;;;;;;0.10;0.10;;;;;;;14.21;59.42;99252.28;5082586;28;20043;-71
2023/06/23 00:18:06;;;;;;;0.10;0.10;;;;;;;14.21;59.31;99241.31;5090891;28;20043;-71
2023/06/23 00:20:32;;;;;;;0.10;0.10;;;;;;;14.18;59.63;99237.22;5084781;28;20144;-71
2023/06/23 00:22:59;;;;;;;0.10;0.10;;;;;;;14.10;59.53;99233.28;5080318;28;20572;-71
2023/06/23 00:25:27;;;;;;;0.10;0.10;;;;;;;14.04;59.89;99231.81;5080888;28;20082;-72
2023/06/23 00:27:53;;;;;;;0.10;0.10;;;;;;;13.98;60.37;99220.13;5083585;28;20040;-72
2023/06/23 00:30:19;;;;;;;0.10;0.10;;;;;;;14.03;60.35;99222.72;5079458;28;20079;-72
2023/06/23 00:32:46;;;;;;;0.10;0.10;;;;;;;14.10;59.92;99216.81;5083764;28;20360;-71
2023/06/23 00:35:13;;;;;;;0.10;0.10;;;;;;;14.21;60.38;99216.56;5047826;28;20210;-71
2023/06/23 00:37:39;;;;;;;0.10;0.10;;;;;;;14.26;59.34;99214.50;5080306;28;20060;-71
2023/06/23 00:40:12;;;;;;;0.10;0.10;;;;;;;14.22;59.92;99208.00;5088048;28;20047;-71
2023/06/23 00:42:44;;;;;;;0.10;0.10;;;;;;;14.30;59.77;99220.97;5080185;28;20051;-72
2023/06/23 00:45:11;;;;;;;0.10;0.10;;;;;;;14.27;59.96;99215.28;5081295;28;20064;-71
2023/06/23 00:47:37;;;;;;;0.00;0.00;;;;;;;14.24;60.24;99216.75;5088441;28;20502;-71
2023/06/23 00:50:06;;;;;;;0.10;0.10;;;;;;;14.26;60.21;99217.25;5083876;28;20048;-71
2023/06/23 00:52:33;;;;;;;0.10;0.10;;;;;;;14.29;59.57;99224.84;5082578;28;20036;-71
2023/06/23 00:55:02;;;;;;;0.10;0.10;;;;;;;14.28;59.47;99214.16;5081494;28;20054;-71
2023/06/23 00:57:29;;;;;;;0.10;0.10;;;;;;;14.18;60.04;99221.56;5063940;28;20052;-72
2023/06/23 00:59:58;;;;;;;0.47;0.10;;;;;;;14.20;60.26;99220.44;5083957;28;20146;-71
2023/06/23 01:02:27;;;;;;;0.10;0.10;;;;;;;14.29;60.07;99224.06;5082136;28;20109;-72
2023/06/23 01:04:54;;;;;;;0.10;0.10;;;;;;;14.33;60.60;99230.56;5082194;28;20139;-70
2023/06/23 01:07:27;;;;;;;0.10;0.10;;;;;;;14.39;60.63;99229.28;5082781;28;20121;-73
2023/06/23 01:10:02;;;;;;;0.10;0.10;;;;;;;14.39;60.70;99232.03;5091445;28;20052;-74
2023/06/23 01:12:38;;;;;;;0.10;0.10;;;;;;;14.31;60.59;99228.09;5063398;28;20223;-71
2023/06/23 01:15:13;;;;;;;0.10;0.10;;;;;;;14.36;60.43;99224.41;5061258;28;20460;-71
2023/06/23 01:17:43;;;;;;;0.00;0.00;;;;;;;14.45;59.55;99227.22;5058998;28;20584;-70
2023/06/23 01:20:21;;;;;;;0.10;0.10;;;;;;;14.47;59.71;99222.22;5087913;28;20051;-72
2023/06/23 01:23:06;;;;;;;0.10;0.10;;;;;;;14.54;59.81;99221.75;5056982;28;20545;-72
2023/06/23 01:25:46;;;;;;;0.10;0.10;;;;;;;14.53;59.67;99223.72;5075637;28;20449;-72
2023/06/23 01:28:38;;;;;;;0.10;0.10;;;;;;;14.53;59.39;99225.63;5072440;28;20053;-73
2023/06/23 01:31:09;;;;;;;0.10;0.10;;;;;;;14.39;60.17;99210.03;5082771;28;20068;-72
2023/06/23 01:33:48;;;;;;;0.10;0.10;;;;;;;14.49;60.36;99217.19;5082122;28;20131;-73
2023/06/23 01:36:23;;;;;;;0.00;0.00;;;;;;;14.51;60.03;99216.91;5093504;28;20047;-72
2023/06/23 01:38:54;;;;;;;0.10;0.10;;;;;;;14.49;59.62;99221.91;5068471;28;20151;-72
2023/06/23 01:41:24;;;;;;;0.10;0.10;;;;;;;14.39;60.62;99217.47;5084114;28;20051;-73
2023/06/23 01:43:55;;;;;;;0.10;0.10;;;;;;;14.36;61.06;99215.34;5052047;28;20056;-72
2023/06/23 01:46:34;;;;;;;0.10;0.10;;;;;;;14.32;62.02;99217.94;5091491;28;20190;-73
2023/06/23 01:49:07;;;;;;;0.10;0.10;;;;;;;14.22;62.87;99216.25;5057468;28;20139;-73
2023/06/23 01:51:35;;;;;;;0.10;0.10;;;;;;;14.09;63.63;99220.66;5082389;28;20040;-72
2023/06/23 01:54:03;;;;;;;0.10;0.10;;;;;;;13.94;64.11;99221.03;5086775;28;20581;-73
2023/06/23 01:56:32;;;;;;;0.10;0.10;;;;;;;13.82;65.73;99236.16;5081770;28;20169;-73
2023/06/23 01:59:02;;;;;;;0.10;0.10;;;;;;;13.84;65.86;99233.09;5084685;28;20147;-72
2023/06/23 02:01:30;;;;;;;0.10;0.10;;;;;;;13.90;66.21;99231.88;5087186;28;20050;-72
2023/06/23 02:03:58;;;;;;;0.10;0.10;;;;;;;13.89;66.56;99224.72;5087526;28;20514;-72
2023/06/23 02:06:27;;;;;;;0.10;0.10;;;;;;;13.88;66.64;99229.41;5087715;28;20059;-73
2023/06/23 02:08:53;;;;;;;0.10;0.10;;;;;;;13.87;67.24;99229.72;5085233;28;20070;-72
2023/06/23 02:11:22;;;;;;;0.10;0.10;;;;;;;13.90;67.52;99235.41;5081721;28;20078;-72
2023/06/23 02:13:51;;;;;;;0.00;0.00;;;;;;;13.86;67.87;99237.16;5082390;28;20273;-74
2023/06/23 02:16:20;;;;;;;0.10;0.10;;;;;;;13.85;68.35;99241.03;5082945;28;20055;-70
2023/06/23 02:18:53;;;;;;;0.10;0.10;;;;;;;13.84;68.29;99252.31;5082166;28;20139;-70
2023/06/23 02:21:20;;;;;;;0.10;0.10;;;;;;;13.68;68.50;99249.94;5045994;28;20056;-71
2023/06/23 02:23:48;;;;;;;0.10;0.10;;;;;;;13.54;69.93;99249.16;5082525;28;20078;-69
2023/06/23 02:26:15;;;;;;;0.10;0.10;;;;;;;13.49;71.40;99238.28;5069436;28;20097;-70
2023/06/23 02:28:42;;;;;;;0.00;0.00;;;;;;;13.42;71.55;99241.41;5068315;28;20066;-70
2023/06/23 02:31:09;;;;;;;0.10;0.10;;;;;;;13.36;72.09;99232.47;5088905;28;20562;-71
2023/06/23 02:33:38;;;;;;;0.00;0.00;;;;;;;13.39;72.67;99231.03;5084292;28;20513;-71
2023/06/23 02:36:06;;;;;;;0.10;0.10;;;;;;;13.47;72.07;99230.34;5083507;28;20071;-69
2023/06/23 02:38:36;;;;;;;0.03;0.03;;;;;;;13.49;72.69;99227.28;5084652;28;20063;-71
2023/06/23 02:41:05;;;;;;;0.10;0.10;;;;;;;13.58;72.53;99226.25;5090532;28;20415;-71
2023/06/23 02:43:37;;;;;;;0.00;0.00;;;;;;;13.65;72.20;99223.09;5090646;28;20055;-72
2023/06/23 02:46:05;;;;;;;0.00;0.00;;;;;;;13.65;72.04;99220.34;5081622;28;20143;-71
2023/06/23 02:48:36;;;;;;;0.10;0.10;;;;;;;13.64;72.35;99213.22;5065301;28;20050;-71
2023/06/23 02:51:06;;;;;;;0.10;0.10;;;;;;;13.65;72.67;99217.59;5090950;28;20102;-71
2023/06/23 02:53:37;;;;;;;0.10;0.10;;;;;;;13.65;72.52;99216.75;5066433;28;20101;-71
2023/06/23 02:56:08;;;;;;;0.10;0.10;;;;;;;13.61;72.48;99213.84;5083103;28;20403;-71
2023/06/23 02:58:36;;;;;;;0.10;0.10;;;;;;;13.62;73.35;99207.22;5082341;28;20439;-71
2023/06/23 03:01:04;;;;;;;0.10;0.10;;;;;;;13.60;72.82;99210.28;5079437;28;20138;-71
2023/06/23 03:03:33;;;;;;;0.10;0.10;;;;;;;13.57;72.87;99219.13;5074994;28;20075;-71
2023/06/23 03:06:01;;;;;;;0.10;0.10;;;;;;;13.60;73.37;99213.03;5087125;28;20040;-71
2023/06/23 03:08:29;;;;;;;0.10;0.10;;;;;;;13.60;73.13;99213.03;5056970;28;20076;-71
2023/06/23 03:10:56;;;;;;;0.25;0.10;;;;;;;13.56;72.97;99203.78;5091610;28;20391;-71
2023/06/23 03:13:22;;;;;;;0.10;0.10;;;;;;;13.60;72.88;99209.47;5091835;28;20044;-70
2023/06/23 03:15:57;;;;;;;0.10;0.10;;;;;;;13.65;72.88;99209.34;5082032;28;20044;-70
2023/06/23 03:18:28;;;;;;;0.38;0.20;;;;;;;13.69;72.89;99217.78;5082414;28;20066;-71
2023/06/23 03:20:58;;;;;;;0.10;0.10;;;;;;;13.79;72.47;99217.53;5074724;28;20314;-71
2023/06/23 03:23:26;;;;;;;0.10;0.10;;;;;;;13.88;71.89;99220.34;5080257;28;20236;-71
2023/06/23 03:25:54;;;;;;;0.10;0.10;;;;;;;13.94;71.94;99213.63;5081589;28;20046;-71
2023/06/23 03:28:26;;;;;;;0.10;0.10;;;;;;;14.00;71.58;99217.88;5083042;28;20058;-71
2023/06/23 03:30:58;;;;;;;0.10;0.10;;;;;;;14.12;71.43;99213.75;5082622;28;20050;-71
2023/06/23 03:33:32;;;;;;;0.10;0.10;;;;;;;14.28;70.89;99212.22;5059720;28;20047;-70
2023/06/23 03:36:05;;;;;;;0.10;0.10;;;;;;;14.27;70.20;99207.88;5104297;28;20047;-71
2023/06/23 03:38:37;;;;;;;0.10;0.10;;;;;;;14.34;70.36;99201.91;5064995;28;20080;-71
2023/06/23 03:41:10;;;;;;;0.10;0.10;;;;;;;14.50;69.88;99204.28;5084503;28;20510;-69
2023/06/23 03:43:43;;;;;;;0.10;0.10;;;;;;;14.55;69.45;99206.88;5083797;28;20510;-71
2023/06/23 03:46:17;;;;;;;0.10;0.10;;;;;;;14.65;69.13;99203.03;5080430;28;20531;-73
2023/06/23 03:48:45;;;;;;;0.10;0.10;;;;;;;14.81;68.71;99201.50;5084894;28;20519;-73
2023/06/23 03:51:15;;;;;;;0.10;0.10;;;;;;;14.99;69.21;99209.84;5082683;28;20047;-73
2023/06/23 03:53:43;;;;;;;0.10;0.10;;;;;;;15.09;68.77;99201.28;5084522;28;20519;-73
2023/06/23 03:56:12;;;;;;;0.10;0.10;;;;;;;15.24;67.96;99202.78;5080610;28;20060;-73
2023/06/23 03:58:40;;;;;;;0.15;0.15;;;;;;;15.28;67.48;99190.00;5083080;28;20044;-73
2023/06/23 04:01:07;;;;;;;0.20;0.20;;;;;;;15.39;67.53;99186.94;5081262;28;20056;-73
2023/06/23 04:03:37;;;;;;;0.20;0.20;;;;;;;15.50;67.02;99192.94;5082452;28;20502;-73
2023/06/23 04:06:06;;;;;;;0.10;0.10;;;;;;;15.55;66.46;99185.34;5082424;28;20154;-73
2023/06/23 04:08:38;;;;;;;0.10;0.10;;;;;;;15.55;66.00;99187.28;5064430;28;20036;-73
2023/06/23 04:11:06;;;;;;;0.20;0.20;;;;;;;15.54;66.35;99192.00;5082584;28;20202;-73
2023/06/23 04:13:35;;;;;;;0.10;0.10;;;;;;;15.63;66.12;99196.69;5085358;28;20085;-73
2023/06/23 04:16:04;;;;;;;0.10;0.10;;;;;;;15.57;66.35;99180.31;5067731;28;20036;-73
2023/06/23 04:18:34;;;;;;;0.10;0.10;;;;;;;15.55;66.92;99188.09;5087809;28;20040;-73
2023/06/23 04:21:02;;;;;;;0.10;0.10;;;;;;;15.51;66.92;99195.38;5081427;28;20044;-73
2023/06/23 04:23:30;;;;;;;0.10;0.10;;;;;;;15.47;67.07;99194.41;5085710;28;20039;-73
2023/06/23 04:25:58;;;;;;;0.17;0.17;;;;;;;15.48;67.02;99186.97;5084016;28;20050;-73
2023/06/23 04:28:25;;;;;;;0.10;0.10;;;;;;;15.54;66.61;99202.19;5066791;28;20135;-73
2023/06/23 04:30:55;;;;;;;0.10;0.10;;;;;;;15.50;67.04;99199.25;5082114;28;20098;-73
2023/06/23 04:33:21;;;;;;;0.10;0.10;;;;;;;15.35;68.10;99207.97;5061961;28;20040;-73
2023/06/23 04:35:49;;;;;;;0.13;0.13;;;;;;;15.26;68.68;99213.47;5084778;28;20578;-73
2023/06/23 04:38:22;;;;;;;0.13;0.13;;;;;;;15.24;68.68;99210.22;5064416;28;20406;-73
2023/06/23 04:40:53;;;;;;;0.10;0.10;;;;;;;15.12;68.29;99208.09;5081847;28;20047;-74
2023/06/23 04:43:26;;;;;;;0.10;0.10;;;;;;;14.87;69.17;99197.50;5082639;28;20035;-74
2023/06/23 04:45:57;;;;;;;0.10;0.10;;;;;;;14.95;69.66;99192.34;5082371;28;20044;-73
2023/06/23 04:48:27;;;;;;;0.10;0.10;;;;;;;14.98;69.79;99191.69;5078632;28;20048;-73
2023/06/23 04:50:56;;;;;;;0.10;0.10;;;;;;;14.96;70.07;99192.03;5082630;28;20132;-73
2023/06/23 04:53:27;;;;;;;0.15;0.15;;;;;;;15.02;70.41;99188.00;5083694;28;20052;-73
2023/06/23 04:55:57;;;;;;;0.20;0.20;;;;;;;15.12;70.37;99192.38;5083254;28;20055;-73
2023/06/23 04:58:26;;;;;;;0.10;0.10;;;;;;;15.10;70.61;99200.16;5084819;28;20130;-73
2023/06/23 05:00:56;;;;;;;0.10;0.10;;;;;;;15.24;70.65;99207.47;5083023;28;20040;-73
2023/06/23 05:03:23;;;;;;;0.17;0.17;;;;;;;15.42;70.71;99195.34;5086955;28;20135;-74
2023/06/23 05:05:51;;;;;;;;;;;;;;;15.63;70.50;99199.44;5081146;28;20526;-73
2023/06/23 05:08:17;;;;;;;0.20;0.20;;;;;;;15.78;69.45;99196.19;5081189;28;19971;-73
2023/06/23 05:10:46;;;;;;;0.10;0.10;;;;;;;15.87;69.25;99196.19;5093947;28;20056;-73
2023/06/23 05:13:17;;;;;;;0.20;0.20;;;;;;;15.88;69.20;99186.78;5081937;28;20048;-73
2023/06/23 05:15:46;;;;;;;0.20;0.20;;;;;;;15.93;69.39;99181.16;5066703;28;20066;-74
2023/06/23 05:18:17;;;;;;;0.20;0.20;;;;;;;15.95;69.27;99183.56;5093286;28;20210;-73
2023/06/23 05:20:45;;;;;;;0.20;0.20;;;;;;;15.95;69.54;99176.13;5099564;28;20059;-72
2023/06/23 05:23:14;;;;;;;0.10;0.10;;;;;;;16.01;69.23;99179.53;5082916;28;20052;-73
2023/06/23 05:25:43;;;;;;;0.20;0.20;;;;;;;16.05;69.55;99185.16;5089220;28;20060;-73
2023/06/23 05:28:11;;;;;;;0.20;0.20;;;;;;;16.06;69.63;99178.50;5079328;28;20138;-73
2023/06/23 05:30:40;;;;;;;0.20;0.20;;;;;;;16.06;69.80;99184.84;5082909;28;20051;-73
2023/06/23 05:33:09;;;;;;;0.20;0.20;;;;;;;16.10;70.02;99179.50;5080807;28;20040;-73
2023/06/23 05:35:38;;;;;;;0.20;0.20;;;;;;;16.15;69.84;99187.59;5076132;28;20139;-73
2023/06/23 05:38:07;;;;;;;0.20;0.20;;;;;;;16.11;70.36;99184.69;5081355;28;20486;-73
2023/06/23 05:40:33;;;;;;;0.20;0.20;;;;;;;16.05;69.99;99186.00;5081235;28;20601;-74
2023/06/23 05:43:00;;;;;;;0.20;0.20;;;;;;;16.11;69.84;99184.69;5092023;28;20047;-74
2023/06/23 05:45:26;;;;;;;0.20;0.20;;;;;;;16.16;69.55;99187.28;5089247;28;20067;-74
2023/06/23 05:48:00;;;;;;;0.20;0.20;;;;;;;16.35;68.97;99185.28;5082590;28;20422;-73
2023/06/23 05:50:31;;;;;;;0.20;0.20;;;;;;;16.53;68.60;99189.59;5070166;28;20047;-72
2023/06/23 05:53:04;;;;;;;0.20;0.20;;;;;;;16.67;68.07;99189.41;5077631;28;20051;-73
2023/06/23 05:55:33;;;;;;;0.20;0.20;;;;;;;16.68;67.72;99188.25;5079985;28;20519;-73
2023/06/23 05:58:05;;;;;;;0.20;0.20;;;;;;;16.54;67.73;99182.94;5087573;28;20536;-73
2023/06/23 06:00:35;;;;;;;0.20;0.20;;;;;;;16.48;68.41;99184.25;5074910;28;20052;-73
2023/06/23 06:03:06;;;;;;;0.20;0.20;;;;;;;16.55;68.69;99175.47;5087278;28;20123;-73
2023/06/23 06:05:34;;;;;;;0.20;0.20;;;;;;;16.64;68.89;99175.44;5082118;28;20048;-73
2023/06/23 06:08:04;;;;;;;0.20;0.20;;;;;;;16.71;68.77;99173.00;5088455;28;20135;-74
2023/06/23 06:10:31;;;;;;;0.30;0.30;;;;;;;16.57;69.23;99170.44;5097822;28;20067;-73
2023/06/23 06:12:59;;;;;;;0.20;0.20;;;;;;;16.62;70.19;99178.53;5081505;28;20044;-73
2023/06/23 06:15:26;;;;;;;0.30;0.30;;;;;;;16.62;70.67;99178.53;5084764;28;20052;-74
2023/06/23 06:17:53;;;;;;;;;;;;;;;16.64;71.15;99172.69;5079612;28;20075;-74
2023/06/23 06:20:22;;;;;;;0.20;0.20;;;;;;;16.53;71.64;99159.25;5098442;28;19923;-73
2023/06/23 06:22:50;;;;;;;0.20;0.20;;;;;;;16.51;73.02;99169.81;5097594;28;20195;-73
2023/06/23 06:25:18;;;;;;;0.20;0.20;;;;;;;16.37;74.38;99171.97;5087839;28;20036;-73
2023/06/23 06:27:47;;;;;;;0.20;0.20;;;;;;;16.30;75.58;99172.47;5078149;28;20093;-73
2023/06/23 06:30:16;;;;;;;0.20;0.20;;;;;;;16.30;76.16;99175.22;5079906;28;20078;-73
2023/06/23 06:32:43;;;;;;;0.20;0.20;;;;;;;16.21;78.47;99163.41;5084982;28;20044;-73
2023/06/23 06:35:12;;;;;;;0.20;0.20;;;;;;;16.01;81.37;99161.00;5084992;28;20040;-73
2023/06/23 06:37:43;;;;;;;0.20;0.20;;;;;;;15.86;83.20;99165.06;5084930;28;20075;-71
2023/06/23 06:40:12;;;;;;;0.20;0.20;;;;;;;15.73;84.06;99155.81;5084091;28;20056;-73
2023/06/23 06:42:40;;;;;;;0.10;0.10;;;;;;;15.71;84.30;99158.09;5085729;28;20093;-73
2023/06/23 06:45:09;;;;;;;0.20;0.20;;;;;;;15.78;84.50;99143.03;5084800;28;20054;-69
2023/06/23 06:47:40;;;;;;;0.20;0.20;;;;;;;15.81;84.47;99151.44;5102360;28;20040;-72
2023/06/23 06:50:08;;;;;;;0.20;0.20;;;;;;;15.84;84.29;99161.00;5083888;28;20058;-71
2023/06/23 06:52:36;;;;;;;0.20;0.20;;;;;;;15.90;84.30;99156.97;5082748;28;20036;-72
2023/06/23 06:55:03;;;;;;;0.10;0.10;;;;;;;16.02;83.65;99164.59;5079428;28;20109;-72
2023/06/23 06:57:32;;;;;;;0.20;0.20;;;;;;;16.04;83.34;99153.22;5084674;28;20129;-71
2023/06/23 06:59:59;;;;;;;0.20;0.20;;;;;;;15.98;83.32;99139.63;5093760;28;20051;-71
2023/06/23 07:02:27;;;;;;;0.20;0.20;;;;;;;16.09;83.12;99142.84;5085154;28;20059;-71
2023/06/23 07:04:54;;;;;;;0.10;0.10;;;;;;;16.11;83.18;99135.03;5084774;28;20044;-71
2023/06/23 07:07:20;;;;;;;0.20;0.20;;;;;;;16.12;83.68;99133.91;5072116;28;20052;-71
2023/06/23 07:09:47;;;;;;;0.20;0.20;;;;;;;16.13;83.47;99127.25;5086368;28;20131;-73
2023/06/23 07:12:13;;;;;;;0.20;0.20;;;;;;;16.17;83.51;99130.16;5099104;28;20039;-73
2023/06/23 07:14:39;;;;;;;0.20;0.20;;;;;;;16.18;83.54;99129.03;5091396;28;20059;-73
2023/06/23 07:17:07;;;;;;;0.20;0.20;;;;;;;16.15;83.83;99133.25;5096488;28;20044;-73
2023/06/23 07:19:33;;;;;;;0.20;0.20;;;;;;;16.16;84.02;99134.88;5089116;28;20549;-73
2023/06/23 07:22:00;;;;;;;0.20;0.20;;;;;;;16.23;84.06;99141.84;5074339;28;20036;-73
2023/06/23 07:24:26;;;;;;;0.20;0.20;;;;;;;16.27;84.15;99137.28;5082602;28;20048;-73
2023/06/23 07:26:52;;;;;;;0.20;0.20;;;;;;;16.34;84.54;99121.03;5098820;28;20052;-74
2023/06/23 07:29:18;;;;;;;0.20;0.20;;;;;;;16.44;84.39;99136.41;5085629;28;20044;-73
2023/06/23 07:31:44;;;;;;;0.10;0.10;;;;;;;16.47;84.26;99132.16;5084301;28;20039;-74
2023/06/23 07:34:12;;;;;;;0.20;0.20;;;;;;;16.48;84.29;99140.13;5073370;28;20101;-73
2023/06/23 07:36:38;;;;;;;0.20;0.20;;;;;;;16.44;84.30;99133.66;5094584;28;20052;-73
2023/06/23 07:39:05;;;;;;;0.20;0.20;;;;;;;16.50;84.83;99142.56;5081477;28;20149;-73
2023/06/23 07:41:31;;;;;;;0.20;0.20;;;;;;;16.60;84.44;99133.91;5098699;28;20126;-73
2023/06/23 07:43:57;;;;;;;0.20;0.20;;;;;;;16.70;84.06;99139.06;5101589;28;20254;-73
2023/06/23 07:46:23;;;;;;;0.20;0.20;;;;;;;16.74;83.64;99133.69;5103053;28;20479;-74
2023/06/23 07:48:49;;;;;;;0.15;0.15;;;;;;;16.79;83.66;99133.47;5088888;28;20051;-74
2023/06/23 07:51:17;;;;;;;0.20;0.20;;;;;;;16.87;83.42;99143.69;5107030;28;20048;-73
2023/06/23 07:53:43;;;;;;;0.20;0.20;;;;;;;16.90;83.35;99138.63;5099996;28;20100;-72
2023/06/23 07:56:12;;;;;;;0.20;0.20;;;;;;;16.92;83.33;99136.34;5094544;28;20058;-72
2023/06/23 07:58:39;;;;;;;0.20;0.20;;;;;;;16.93;83.79;99136.00;5096807;28;20515;-72
2023/06/23 08:01:06;;;;;;;0.20;0.20;;;;;;;16.95;83.99;99138.44;5086727;28;20143;-72
2023/06/23 08:03:32;;;;;;;;;;;;;;;16.96;84.19;99132.59;5083934;28;20062;-72
2023/06/23 08:05:58;;;;;;;0.20;0.20;;;;;;;16.96;84.46;99134.53;5074764;28;19925;-73
2023/06/23 08:08:26;;;;;;;0.20;0.20;;;;;;;16.92;84.33;99128.06;5065443;28;20048;-72
2023/06/23 08:10:52;;;;;;;0.20;0.20;;;;;;;16.98;84.83;99135.81;5087768;28;20055;-73
2023/06/23 08:13:18;;;;;;;0.20;0.20;;;;;;;16.97;84.99;99125.91;5084979;28;20054;-73
2023/06/23 08:15:46;;;;;;;0.30;0.30;;;;;;;17.00;85.11;99129.97;5084978;28;20166;-72
2023/06/23 08:18:13;;;;;;;0.20;0.20;;;;;;;17.01;85.40;99121.38;5063462;28;20044;-72
2023/06/23 08:20:39;;;;;;;0.20;0.20;;;;;;;17.06;85.44;99125.06;5085731;28;20429;-72
2023/06/23 08:23:05;;;;;;;0.20;0.20;;;;;;;17.02;85.43;99133.25;5083955;28;20056;-72
2023/06/23 08:25:33;;;;;;;0.20;0.20;;;;;;;17.00;85.78;99130.81;5081326;28;20050;-72
2023/06/23 08:27:59;;;;;;;0.20;0.20;;;;;;;17.03;85.83;99118.28;5085873;28;20044;-72
2023/06/23 08:30:27;;;;;;;0.20;0.20;;;;;;;17.12;85.82;99115.47;5086231;28;20052;-72
2023/06/23 08:32:53;;;;;;;0.20;0.20;;;;;;;17.22;86.04;99122.53;5064876;28;20577;-73
2023/06/23 08:35:19;;;;;;;0.20;0.20;;;;;;;17.29;86.20;99123.63;5042360;28;20131;-70
2023/06/23 08:37:46;;;;;;;0.20;0.20;;;;;;;17.29;85.86;99111.75;5076957;28;20036;-71
2023/06/23 08:40:13;;;;;;;0.20;0.20;;;;;;;17.25;86.04;99113.56;5087356;28;20074;-70
2023/06/23 08:42:40;;;;;;;;;;;;;;;17.23;86.16;99110.34;4727909;28;10000354;-70
2023/06/23 08:45:08;;;;;;;0.20;0.20;;;;;;;17.22;86.25;99111.50;5081069;28;19966;-72
2023/06/23 08:47:37;;;;;;;0.20;0.20;;;;;;;17.20;86.29;99113.78;5087081;28;20536;-71
2023/06/23 08:50:05;;;;;;;0.20;0.20;;;;;;;17.09;86.66;99108.66;5076221;28;20052;-71
2023/06/23 08:52:32;;;;;;;0.20;0.20;;;;;;;16.96;87.00;99096.69;5082911;28;20050;-71
2023/06/23 08:54:58;;;;;;;0.20;0.20;;;;;;;16.92;87.77;99100.47;5088138;28;20062;-71
2023/06/23 08:57:25;;;;;;;0.20;0.20;;;;;;;16.92;87.80;99106.78;5081859;28;20473;-70
2023/06/23 08:59:53;;;;;;;0.20;0.20;;;;;;;16.89;88.48;99104.69;5080138;28;20067;-69
2023/06/23 09:02:19;;;;;;;0.20;0.20;;;;;;;16.90;88.75;99099.97;5080260;28;20506;-71
2023/06/23 09:04:45;;;;;;;0.20;0.20;;;;;;;16.85;88.78;99106.50;5074859;28;20048;-71
2023/06/23 09:07:11;;;;;;;0.20;0.20;;;;;;;16.81;89.37;99103.59;5077895;28;20162;-70
2023/06/23 09:09:37;;;;;;;0.20;0.20;;;;;;;16.83;89.55;99115.09;5075377;28;20064;-72
2023/06/23 09:12:05;;;;;;;0.20;0.20;;;;;;;16.81;89.94;99122.13;5077864;28;20121;-71
2023/06/23 09:14:33;;;;;;;0.20;0.20;;;;;;;16.77;90.71;99112.88;5096626;28;20052;-71
2023/06/23 09:17:01;;;;;;;0.20;0.20;;;;;;;16.69;91.96;99118.13;5096051;28;20648;-71
2023/06/23 09:19:31;;;;;;;0.20;0.20;;;;;;;16.59;93.35;99122.06;5078818;28;20040;-71
2023/06/23 09:21:58;;;;;;;0.20;0.20;;;;;;;16.54;94.51;99126.97;5085460;28;20252;-71
2023/06/23 09:24:24;;;;;;;0.20;0.20;;;;;;;16.50;95.37;99128.75;5080987;28;20149;-71
2023/06/23 09:26:52;;;;;;;0.20;0.20;;;;;;;16.42;96.30;99122.13;5079088;28;20293;-71
2023/06/23 09:29:20;;;;;;;0.20;0.20;;;;;;;16.43;96.86;99126.50;5083690;28;20230;-73
2023/06/23 09:31:47;;;;;;;0.20;0.20;;;;;;;16.44;97.05;99131.69;5043155;28;20406;-72
2023/06/23 09:34:23;;;;;;;0.20;0.20;;;;;;;16.41;98.01;99126.03;5077323;28;20054;-72
2023/06/23 09:36:49;;;;;;;0.20;0.20;;;;;;;16.37;99.07;99136.91;5078375;28;20040;-73
2023/06/23 09:39:16;;;;;;;0.20;0.20;;;;;;;16.38;100.00;99141.28;5083322;28;20421;-73
2023/06/23 09:41:47;;;;;;;0.20;0.20;;;;;;;16.38;100.00;99138.53;5092673;28;20051;-73
2023/06/23 09:44:14;;;;;;;0.20;0.20;;;;;;;16.31;100.00;99138.22;5077230;28;20600;-72
2023/06/23 09:46:41;;;;;;;0.20;0.20;;;;;;;16.27;100.00;99149.13;5079434;28;20208;-73
2023/06/23 09:49:08;;;;;;;0.20;0.20;;;;;;;16.24;100.00;99147.03;5079224;28;20044;-73
2023/06/23 09:51:37;;;;;;;0.20;0.20;;;;;;;16.13;100.00;99138.28;5046935;28;20511;-73
2023/06/23 09:54:04;;;;;;;0.20;0.20;;;;;;;16.14;100.00;99133.59;5084871;28;20092;-72
2023/06/23 09:56:30;;;;;;;0.20;0.20;;;;;;;16.11;100.00;99129.53;5084550;28;20060;-72
2023/06/23 09:58:57;;;;;;;0.20;0.20;;;;;;;16.16;100.00;99123.84;5088938;28;20131;-73
2023/06/23 10:01:23;;;;;;;0.20;0.20;;;;;;;16.22;100.00;99124.47;5084297;28;20210;-72
2023/06/23 10:03:52;;;;;;;0.20;0.20;;;;;;;16.26;100.00;99119.94;5089280;28;20052;-72
2023/06/23 10:06:23;;;;;;;0.20;0.20;;;;;;;16.27;100.00;99129.00;5083743;28;20560;-72
2023/06/23 10:08:54;;;;;;;0.20;0.20;;;;;;;16.23;100.00;99128.03;5087480;28;20044;-72
2023/06/23 10:11:28;;;;;;;0.20;0.20;;;;;;;16.23;100.00;99134.34;5088503;28;20040;-72
2023/06/23 10:13:54;;;;;;;0.20;0.20;;;;;;;16.28;100.00;99145.22;5085635;28;20088;-70
2023/06/23 10:16:21;;;;;;;0.20;0.20;;;;;;;16.39;100.00;99142.09;5084122;28;20121;-70
2023/06/23 10:18:47;;;;;;;0.20;0.20;;;;;;;16.54;100.00;99143.50;5085254;28;20043;-71
2023/06/23 10:21:14;;;;;;;0.20;0.20;;;;;;;16.62;100.00;99142.66;5084802;28;20529;-71
2023/06/23 10:23:41;;;;;;;0.20;0.20;;;;;;;16.71;100.00;99150.91;5085597;28;20048;-71
2023/06/23 10:26:10;;;;;;;0.20;0.20;;;;;;;16.78;100.00;99140.16;5085558;28;20422;-71
2023/06/23 10:28:38;;;;;;;0.20;0.20;;;;;;;16.87;100.00;99145.63;5083637;28;20051;-71
2023/06/23 10:31:06;;;;;;;0.20;0.20;;;;;;;16.92;100.00;99150.94;5083892;28;20063;-71
2023/06/23 10:33:36;;;;;;;0.20;0.20;;;;;;;16.98;100.00;99143.28;5084255;28;20048;-72
2023/06/23 10:36:06;;;;;;;0.20;0.20;;;;;;;17.05;100.00;99138.09;5081815;28;20510;-71
2023/06/23 10:38:33;;;;;;;0.20;0.20;;;;;;;17.13;100.00;99133.66;5082907;28;20040;-72
2023/06/23 10:41:01;;;;;;;0.20;0.20;;;;;;;17.20;100.00;99141.41;5083314;28;20101;-71
2023/06/23 10:43:31;;;;;;;;;;;;;;;17.21;100.00;99143.81;5086736;28;20051;-71
2023/06/23 10:45:59;;;;;;;0.20;0.20;;;;;;;17.25;99.86;99141.19;5085121;28;19928;-71
2023/06/23 10:48:27;;;;;;;0.20;0.20;;;;;;;17.27;98.83;99142.50;5082554;28;20084;-71
2023/06/23 10:50:54;;;;;;;0.20;0.20;;;;;;;17.26;97.93;99134.53;5081311;28;20095;-71
2023/06/23 10:53:28;;;;;;;0.20;0.20;;;;;;;17.34;97.01;99136.44;5068014;28;20048;-72
2023/06/23 10:55:56;;;;;;;0.20;0.20;;;;;;;17.35;95.80;99135.28;5078375;28;20064;-71
2023/06/23 10:58:23;;;;;;;0.20;0.20;;;;;;;17.44;95.30;99135.22;5084868;28;20143;-71
2023/06/23 11:01:00;;;;;;;0.20;0.20;;;;;;;17.43;93.42;99123.34;5082672;28;20660;-71
2023/06/23 11:03:31;;;;;;;0.25;0.25;;;;;;;17.67;92.58;99134.84;5080132;28;20040;-71
2023/06/23 11:05:59;;;;;;;0.20;0.20;;;;;;;17.89;91.50;99130.91;5083525;28;20040;-71
2023/06/23 11:08:31;;;;;;;0.20;0.20;;;;;;;18.11;90.14;99131.72;5067948;28;20591;-71
2023/06/23 11:11:00;;;;;;;0.30;0.30;;;;;;;18.39;89.23;99134.63;5083705;28;20070;-71
2023/06/23 11:13:35;;;;;;;0.20;0.20;;;;;;;18.78;87.78;99131.53;5083733;28;20181;-71
2023/06/23 11:16:03;;;;;;;0.30;0.30;;;;;;;19.09;86.23;99137.66;5085204;28;20044;-71
2023/06/23 11:18:29;;;;;;;0.30;0.30;;;;;;;19.40;85.30;99142.56;5082411;28;20052;-71
2023/06/23 11:21:03;;;;;;;0.30;0.30;;;;;;;19.74;83.58;99141.53;5084160;28;20051;-71
2023/06/23 11:23:30;;;;;;;0.30;0.30;;;;;;;19.94;81.79;99150.84;5082836;28;20055;-72
2023/06/23 11:25:56;;;;;;;0.20;0.20;;;;;;;20.00;80.02;99156.94;5067191;28;20040;-71
2023/06/23 11:28:25;;;;;;;0.30;0.30;;;;;;;19.98;79.98;99151.72;5084391;28;20464;-71
2023/06/23 11:30:55;;;;;;;0.30;0.30;;;;;;;20.26;79.09;99148.13;5079660;28;20139;-71
2023/06/23 11:33:30;;;;;;;0.30;0.30;;;;;;;20.45;76.73;99143.84;5085466;28;20048;-71
2023/06/23 11:36:00;;;;;;;0.30;0.30;;;;;;;20.41;76.26;99132.63;5083206;28;20048;-71
2023/06/23 11:38:27;;;;;;;0.30;0.30;;;;;;;20.45;76.39;99133.53;5084144;28;20108;-71
2023/06/23 11:40:56;;;;;;;0.30;0.30;;;;;;;20.50;75.82;99132.44;5082344;28;20501;-72